Pioneerville, Idaho
Current Conditions -  °F | °C
As of 3:04 AM on Friday 21 Nov 2014 (Local Time) from KBOI Reporting Station
Haze Haze  
Wind Chill: 25°   Ceiling: 1200
Heat Index: 25°   Visibility: 2mi
Dew Point: 19°   Wind: 0mph
Humidity: 80%   Direction: NA
Pressure: 30.07"   Gusts: NA
Location:  43.8008°N, 115.834°W
Report Text: KBOI 211004Z 00000KT 2SM BR BKN012 BKN120 M04/M07 A3007 RMK AO2
Loading
Personal Weather Stations






























Interactive Weather Map New forecast layout! Learn more

10-Day Weather Forecast

Advertisements
Track Severe Weather on mobile